Time;durP1;ratioP1;P1;durP2;ratioP2;P2;SDS_P1;SDS_P2;PMS_P1;PMS_P2;Temp;Humidity;BMP_temperature;BMP_pressure;BME280_temperature;BME280_humidity;BME280_pressure;Samples;Min_cycle;Max_cycle;Signal;HPM_P1;HPM_P2
2021/05/09 00:00:48;;;;;;;;;;;;;;;;;;5096611;28;19977;-59
2021/05/09 00:03:13;;;;;;;;;;;;;;;;;;5090969;28;20602;-59
2021/05/09 00:05:39;;;;;;;;;;;;;;;;;;5093526;28;20016;-59
2021/05/09 00:08:04;;;;;;;;;;;;;;;;;;5098588;28;20010;-59
2021/05/09 00:10:29;;;;;;;;;;;;;;;;;;5095968;28;20011;-59
2021/05/09 00:12:55;;;;;;;;;;;;;;;;;;5096692;28;20334;-59
2021/05/09 00:15:20;;;;;;;;;;;;;;;;;;5100745;28;20277;-58
2021/05/09 00:17:46;;;;;;;;;;;;;;;;;;5095608;28;19920;-59
2021/05/09 00:20:11;;;;;;;;;;;;;;;;;;5094399;28;19998;-59
2021/05/09 00:22:36;;;;;;;;;;;;;;;;;;5095944;28;19912;-59
2021/05/09 00:25:02;;;;;;;;;;;;;;;;;;5093770;28;20364;-59
2021/05/09 00:27:27;;;;;;;;;;;;;;;;;;5096757;28;19916;-59
2021/05/09 00:29:53;;;;;;;;;;;;;;;;;;5093349;28;19933;-59
2021/05/09 00:32:18;;;;;;;;;;;;;;;;;;5095278;28;19924;-59
2021/05/09 00:34:43;;;;;;;;;;;;;;;;;;5093184;28;19923;-59
2021/05/09 00:37:09;;;;;;;;;;;;;;;;;;5098090;28;20047;-59
2021/05/09 00:39:34;;;;;;;;;;;;;;;;;;5098052;28;19916;-59
2021/05/09 00:41:59;;;;;;;;;;;;;;;;;;5101881;28;19978;-59
2021/05/09 00:44:25;;;;;;;;;;;;;;;;;;5099063;28;19983;-59
2021/05/09 00:46:50;;;;;;;;;;;;;;;;;;5091752;28;19920;-59
2021/05/09 00:49:15;;;;;;;;;;;;;;;;;;5099006;28;19951;-60
2021/05/09 00:51:41;;;;;;;;;;;;;;;;;;5100347;28;19913;-59
2021/05/09 00:54:06;;;;;;;;;;;;;;;;;;5101048;28;19912;-60
2021/05/09 00:56:32;;;;;;;;;;;;;;;;;;5096405;28;20011;-60
2021/05/09 00:58:57;;;;;;;;;;;;;;;;;;5093600;28;19912;-59
2021/05/09 01:01:23;;;;;;;;;;;;;;;;;;5100895;28;20016;-59
2021/05/09 01:03:49;;;;;;;;;;;;;;;;;;5089899;28;19920;-58
2021/05/09 01:06:14;;;;;;;;;;;;;;;;;;5086047;28;19920;-58
2021/05/09 01:08:39;;;;;;;;;;;;;;;;;;5089341;28;19999;-58
2021/05/09 01:11:05;;;;;;;;;;;;;;;;;;5091582;28;19920;-59
2021/05/09 01:13:31;;;;;;;;;;;;;;;;;;5091557;28;19916;-58
2021/05/09 01:15:56;;;;;;;;;;;;;;;;;;5087706;28;19919;-59
2021/05/09 01:18:22;;;;;;;;;;;;;;;;;;5089121;28;19977;-59
2021/05/09 01:20:47;;;;;;;;;;;;;;;;;;5092023;28;20384;-59
2021/05/09 01:23:13;;;;;;;;;;;;;;;;;;5092537;28;19938;-59
2021/05/09 01:25:38;;;;;;;;;;;;;;;;;;5091695;28;19912;-59
2021/05/09 01:28:03;;;;;;;;;;;;;;;;;;5091743;28;19912;-59
2021/05/09 01:30:29;;;;;;;;;;;;;;;;;;5091146;28;19943;-59
2021/05/09 01:32:54;;;;;;;;;;;;;;;;;;5091379;28;19970;-59
2021/05/09 01:35:19;;;;;;;;;;;;;;;;;;5089435;28;20262;-59
2021/05/09 01:37:45;;;;;;;;;;;;;;;;;;5088652;28;19977;-59
2021/05/09 01:40:13;;;;;;;;;;;;;;;;;;5085048;28;19920;-59
2021/05/09 01:42:39;;;;;;;;;;;;;;;;;;5090331;28;19961;-59
2021/05/09 01:45:04;;;;;;;;;;;;;;;;;;5092602;28;19963;-59
2021/05/09 01:47:30;;;;;;;;;;;;;;;;;;5092695;28;19977;-59
2021/05/09 01:49:55;;;;;;;;;;;;;;;;;;5091134;28;20303;-58
2021/05/09 01:52:21;;;;;;;;;;;;;;;;;;5089421;28;19916;-59
2021/05/09 01:54:46;;;;;;;;;;;;;;;;;;5091318;28;19920;-59
2021/05/09 01:57:11;;;;;;;;;;;;;;;;;;5090730;28;19916;-59
2021/05/09 01:59:37;;;;;;;;;;;;;;;;;;5090379;28;19923;-59
2021/05/09 02:02:02;;;;;;;;;;;;;;;;;;5092190;28;20346;-59
2021/05/09 02:04:27;;;;;;;;;;;;;;;;;;5092721;28;19966;-59
2021/05/09 02:06:53;;;;;;;;;;;;;;;;;;5088530;28;20434;-59
2021/05/09 02:09:18;;;;;;;;;;;;;;;;;;5088076;28;19916;-59
2021/05/09 02:11:43;;;;;;;;;;;;;;;;;;5090290;28;19912;-59
2021/05/09 02:14:09;;;;;;;;;;;;;;;;;;5083215;28;19943;-59
2021/05/09 02:16:34;;;;;;;;;;;;;;;;;;5089440;28;19912;-59
2021/05/09 02:19:00;;;;;;;;;;;;;;;;;;5086758;28;19920;-58
2021/05/09 02:21:25;;;;;;;;;;;;;;;;;;5087572;28;20342;-59
2021/05/09 02:23:50;;;;;;;;;;;;;;;;;;5087783;28;20005;-59
2021/05/09 02:26:16;;;;;;;;;;;;;;;;;;5087819;28;21284;-59
2021/05/09 02:28:42;;;;;;;;;;;;;;;;;;5088027;28;19912;-59
2021/05/09 02:31:08;;;;;;;;;;;;;;;;;;5089450;28;19941;-59
2021/05/09 02:33:33;;;;;;;;;;;;;;;;;;5093953;28;19916;-58
2021/05/09 02:35:58;;;;;;;;;;;;;;;;;;5095160;28;20257;-59
2021/05/09 02:38:24;;;;;;;;;;;;;;;;;;5094033;28;20006;-59
2021/05/09 02:40:49;;;;;;;;;;;;;;;;;;5093336;28;20261;-59
2021/05/09 02:43:14;;;;;;;;;;;;;;;;;;5093973;28;19920;-58
2021/05/09 02:45:40;;;;;;;;;;;;;;;;;;5094142;28;20027;-59
2021/05/09 02:48:05;;;;;;;;;;;;;;;;;;5095246;28;19911;-59
2021/05/09 02:50:31;;;;;;;;;;;;;;;;;;5109154;28;19916;-59
2021/05/09 02:52:56;;;;;;;;;;;;;;;;;;5090852;28;20280;-59
2021/05/09 02:55:21;;;;;;;;;;;;;;;;;;5095890;28;19920;-59
2021/05/09 02:57:47;;;;;;;;;;;;;;;;;;5090100;28;19920;-59
2021/05/09 03:00:12;;;;;;;;;;;;;;;;;;5090782;28;19948;-59
2021/05/09 03:02:37;;;;;;;;;;;;;;;;;;5095088;28;19923;-58
2021/05/09 03:05:03;;;;;;;;;;;;;;;;;;5095059;28;19924;-59
2021/05/09 03:07:28;;;;;;;;;;;;;;;;;;5101009;28;20024;-58
2021/05/09 03:09:53;;;;;;;;;;;;;;;;;;5101994;28;20006;-59
2021/05/09 03:12:19;;;;;;;;;;;;;;;;;;5104642;28;19927;-58
2021/05/09 03:14:44;;;;;;;;;;;;;;;;;;5103050;28;19976;-59
2021/05/09 03:17:10;;;;;;;;;;;;;;;;;;5100930;28;20314;-58
2021/05/09 03:19:35;;;;;;;;;;;;;;;;;;5101613;28;19930;-59
2021/05/09 03:22:00;;;;;;;;;;;;;;;;;;5102581;28;19912;-58
2021/05/09 03:24:26;;;;;;;;;;;;;;;;;;5101414;28;19916;-58
2021/05/09 03:26:51;;;;;;;;;;;;;;;;;;5095062;28;19955;-58
2021/05/09 03:29:16;;;;;;;;;;;;;;;;;;5102976;28;20048;-59
2021/05/09 03:31:42;;;;;;;;;;;;;;;;;;5101568;28;19916;-59
2021/05/09 03:34:07;;;;;;;;;;;;;;;;;;5104032;28;21175;-59
2021/05/09 03:36:33;;;;;;;;;;;;;;;;;;5103747;28;19922;-59
2021/05/09 03:38:58;;;;;;;;;;;;;;;;;;5105028;28;19912;-59
2021/05/09 03:41:24;;;;;;;;;;;;;;;;;;5099952;28;20341;-58
2021/05/09 03:43:50;;;;;;;;;;;;;;;;;;5104855;28;19912;-59
2021/05/09 03:46:15;;;;;;;;;;;;;;;;;;5100890;28;20273;-59
2021/05/09 03:48:40;;;;;;;;;;;;;;;;;;5098905;28;19920;-59
2021/05/09 03:51:06;;;;;;;;;;;;;;;;;;5100019;28;19920;-58
2021/05/09 03:53:31;;;;;;;;;;;;;;;;;;5100568;28;20041;-59
2021/05/09 03:55:57;;;;;;;;;;;;;;;;;;5102284;28;19918;-59
2021/05/09 03:58:22;;;;;;;;;;;;;;;;;;5099471;28;20002;-59
2021/05/09 04:00:47;;;;;;;;;;;;;;;;;;5102169;28;19936;-59
2021/05/09 04:03:13;;;;;;;;;;;;;;;;;;5102172;28;19920;-58
2021/05/09 04:05:38;;;;;;;;;;;;;;;;;;5093675;28;19924;-58
2021/05/09 04:08:05;;;;;;;;;;;;;;;;;;5099307;28;19920;-59
2021/05/09 04:10:31;;;;;;;;;;;;;;;;;;5099759;28;19916;-59
2021/05/09 04:12:56;;;;;;;;;;;;;;;;;;5100804;28;19922;-59
2021/05/09 04:15:23;;;;;;;;;;;;;;;;;;5093739;28;20334;-58
2021/05/09 04:17:48;;;;;;;;;;;;;;;;;;5097520;28;19915;-58
2021/05/09 04:20:13;;;;;;;;;;;;;;;;;;5102376;28;19922;-59
2021/05/09 04:22:39;;;;;;;;;;;;;;;;;;5101989;28;20314;-59
2021/05/09 04:25:04;;;;;;;;;;;;;;;;;;5102197;28;20257;-59
2021/05/09 04:27:29;;;;;;;;;;;;;;;;;;5101041;28;19922;-59
2021/05/09 04:29:55;;;;;;;;;;;;;;;;;;5102603;28;20242;-59
2021/05/09 04:32:20;;;;;;;;;;;;;;;;;;5102036;28;19951;-58
2021/05/09 04:34:46;;;;;;;;;;;;;;;;;;5098843;28;19989;-59
2021/05/09 04:37:11;;;;;;;;;;;;;;;;;;5097031;28;20344;-59
2021/05/09 04:39:36;;;;;;;;;;;;;;;;;;5091742;28;19931;-58
2021/05/09 04:42:02;;;;;;;;;;;;;;;;;;5099888;28;20392;-58
2021/05/09 04:44:27;;;;;;;;;;;;;;;;;;5095573;28;19919;-58
2021/05/09 04:46:52;;;;;;;;;;;;;;;;;;5092344;28;20369;-59
2021/05/09 04:49:18;;;;;;;;;;;;;;;;;;5099680;28;19912;-59
2021/05/09 04:51:43;;;;;;;;;;;;;;;;;;5098635;28;20234;-59
2021/05/09 04:54:08;;;;;;;;;;;;;;;;;;5095623;28;19912;-59
2021/05/09 04:56:34;;;;;;;;;;;;;;;;;;5092932;28;20045;-59
2021/05/09 04:58:59;;;;;;;;;;;;;;;;;;5100610;28;19922;-59
2021/05/09 05:01:25;;;;;;;;;;;;;;;;;;5091492;28;19912;-61
2021/05/09 05:03:50;;;;;;;;;;;;;;;;;;5091255;28;19912;-61
2021/05/09 05:06:15;;;;;;;;;;;;;;;;;;5093725;28;19924;-61
2021/05/09 05:08:41;;;;;;;;;;;;;;;;;;5092700;28;19926;-61
2021/05/09 05:11:06;;;;;;;;;;;;;;;;;;5092919;28;20368;-61
2021/05/09 05:13:32;;;;;;;;;;;;;;;;;;5092858;28;20038;-61
2021/05/09 05:15:57;;;;;;;;;;;;;;;;;;5093240;28;19977;-61
2021/05/09 05:18:23;;;;;;;;;;;;;;;;;;5092832;28;19920;-61
2021/05/09 05:20:48;;;;;;;;;;;;;;;;;;5093903;28;20396;-61
2021/05/09 05:23:13;;;;;;;;;;;;;;;;;;5091805;28;19912;-60
2021/05/09 05:25:39;;;;;;;;;;;;;;;;;;5093178;28;19912;-61
2021/05/09 05:28:04;;;;;;;;;;;;;;;;;;5093335;28;20257;-61
2021/05/09 05:30:30;;;;;;;;;;;;;;;;;;5091069;28;20426;-61
2021/05/09 05:32:57;;;;;;;;;;;;;;;;;;5091057;28;19916;-61
2021/05/09 05:35:22;;;;;;;;;;;;;;;;;;5089048;28;19912;-65
2021/05/09 05:37:48;;;;;;;;;;;;;;;;;;5091326;28;19916;-65
2021/05/09 05:40:13;;;;;;;;;;;;;;;;;;5104969;28;20298;-65
2021/05/09 05:42:38;;;;;;;;;;;;;;;;;;5092318;28;19959;-66
2021/05/09 05:45:04;;;;;;;;;;;;;;;;;;5107960;28;19928;-66
2021/05/09 05:47:29;;;;;;;;;;;;;;;;;;5105501;28;20003;-69
2021/05/09 05:49:56;;;;;;;;;;;;;;;;;;5088521;28;19923;-65
2021/05/09 05:52:21;;;;;;;;;;;;;;;;;;5089165;28;20341;-65
2021/05/09 05:54:47;;;;;;;;;;;;;;;;;;5091151;28;19927;-66
2021/05/09 05:57:12;;;;;;;;;;;;;;;;;;5090344;28;20053;-66
2021/05/09 05:59:37;;;;;;;;;;;;;;;;;;5105567;28;19912;-66
2021/05/09 06:02:03;;;;;;;;;;;;;;;;;;5090300;28;19919;-66
2021/05/09 06:04:28;;;;;;;;;;;;;;;;;;5090551;28;19927;-66
2021/05/09 06:06:54;;;;;;;;;;;;;;;;;;5091741;28;19920;-66
2021/05/09 06:09:19;;;;;;;;;;;;;;;;;;5095737;28;19985;-67
2021/05/09 06:11:44;;;;;;;;;;;;;;;;;;5094533;28;19912;-66
2021/05/09 06:14:10;;;;;;;;;;;;;;;;;;5095120;28;19995;-66
2021/05/09 06:16:35;;;;;;;;;;;;;;;;;;5092365;28;20359;-66
2021/05/09 06:19:00;;;;;;;;;;;;;;;;;;5094007;28;19923;-66
2021/05/09 06:21:26;;;;;;;;;;;;;;;;;;5095459;28;19977;-67
2021/05/09 06:23:51;;;;;;;;;;;;;;;;;;5097109;28;20417;-67
2021/05/09 06:26:17;;;;;;;;;;;;;;;;;;5103365;28;19924;-70
2021/05/09 06:28:42;;;;;;;;;;;;;;;;;;5102490;28;19939;-70
2021/05/09 06:31:07;;;;;;;;;;;;;;;;;;5095642;28;19944;-66
2021/05/09 06:33:33;;;;;;;;;;;;;;;;;;5092824;28;19920;-66
2021/05/09 06:35:58;;;;;;;;;;;;;;;;;;5095744;28;19920;-66
2021/05/09 06:38:23;;;;;;;;;;;;;;;;;;5092438;28;19923;-66
2021/05/09 06:40:49;;;;;;;;;;;;;;;;;;5096744;28;20353;-66
2021/05/09 06:43:14;;;;;;;;;;;;;;;;;;5092935;28;19912;-66
2021/05/09 06:45:40;;;;;;;;;;;;;;;;;;5095138;28;19916;-65
2021/05/09 06:48:05;;;;;;;;;;;;;;;;;;5093845;28;19959;-66
2021/05/09 06:50:31;;;;;;;;;;;;;;;;;;5095873;28;19920;-65
2021/05/09 06:52:57;;;;;;;;;;;;;;;;;;5109037;28;19915;-66
2021/05/09 06:55:22;;;;;;;;;;;;;;;;;;5094376;28;19912;-67
2021/05/09 06:57:47;;;;;;;;;;;;;;;;;;5109944;28;19919;-67
2021/05/09 07:00:14;;;;;;;;;;;;;;;;;;5094513;28;19927;-67
2021/05/09 07:02:39;;;;;;;;;;;;;;;;;;5109542;28;19991;-67
2021/05/09 07:05:05;;;;;;;;;;;;;;;;;;5092837;28;20015;-66
2021/05/09 07:07:30;;;;;;;;;;;;;;;;;;5093919;28;19924;-66
2021/05/09 07:09:56;;;;;;;;;;;;;;;;;;5092157;28;19947;-66
2021/05/09 07:12:21;;;;;;;;;;;;;;;;;;5110416;28;19969;-66
2021/05/09 07:14:47;;;;;;;;;;;;;;;;;;5111284;28;20325;-66
2021/05/09 07:17:13;;;;;;;;;;;;;;;;;;5093377;28;19912;-66
2021/05/09 07:19:39;;;;;;;;;;;;;;;;;;5110548;28;20376;-67
2021/05/09 07:22:10;;;;;;;;;;;;;;;;;;5093233;28;20355;-67
2021/05/09 07:24:35;;;;;;;;;;;;;;;;;;5091150;28;19912;-66
2021/05/09 07:27:01;;;;;;;;;;;;;;;;;;5092113;28;19926;-66
2021/05/09 07:29:26;;;;;;;;;;;;;;;;;;5094076;28;20342;-66
2021/05/09 07:31:51;;;;;;;;;;;;;;;;;;5092245;28;19952;-66
2021/05/09 07:34:17;;;;;;;;;;;;;;;;;;5091360;28;20337;-66
2021/05/09 07:36:42;;;;;;;;;;;;;;;;;;5092721;28;19912;-66
2021/05/09 07:39:08;;;;;;;;;;;;;;;;;;5089461;28;19912;-67
2021/05/09 07:41:33;;;;;;;;;;;;;;;;;;5091282;28;19963;-67
2021/05/09 07:43:59;;;;;;;;;;;;;;;;;;5092156;28;20787;-67
2021/05/09 07:46:24;;;;;;;;;;;;;;;;;;5092083;28;19916;-67
2021/05/09 07:48:49;;;;;;;;;;;;;;;;;;5093622;28;20345;-66
2021/05/09 07:51:15;;;;;;;;;;;;;;;;;;5091671;28;20012;-67
2021/05/09 07:53:40;;;;;;;;;;;;;;;;;;5091961;28;19919;-67
2021/05/09 07:56:05;;;;;;;;;;;;;;;;;;5109483;28;19969;-66
2021/05/09 07:58:32;;;;;;;;;;;;;;;;;;5090739;28;19923;-66
2021/05/09 08:00:57;;;;;;;;;;;;;;;;;;5092646;28;19923;-66
2021/05/09 08:03:22;;;;;;;;;;;;;;;;;;5090767;28;19916;-67
2021/05/09 08:05:48;;;;;;;;;;;;;;;;;;5091516;28;19937;-67
2021/05/09 08:08:13;;;;;;;;;;;;;;;;;;5091494;28;19962;-67
2021/05/09 08:10:39;;;;;;;;;;;;;;;;;;5092204;28;20258;-66
2021/05/09 08:13:04;;;;;;;;;;;;;;;;;;5090599;28;19916;-66
2021/05/09 08:15:30;;;;;;;;;;;;;;;;;;5091782;28;19918;-66
2021/05/09 08:17:55;;;;;;;;;;;;;;;;;;5092803;28;19912;-66
2021/05/09 08:20:21;;;;;;;;;;;;;;;;;;5091412;28;19916;-69
2021/05/09 08:22:47;;;;;;;;;;;;;;;;;;5096523;28;19923;-67
2021/05/09 08:25:13;;;;;;;;;;;;;;;;;;5094902;28;19912;-67
2021/05/09 08:27:39;;;;;;;;;;;;;;;;;;5090515;28;19954;-66
2021/05/09 08:30:04;;;;;;;;;;;;;;;;;;5091860;28;19999;-66
2021/05/09 08:32:29;;;;;;;;;;;;;;;;;;5090569;28;20281;-66
2021/05/09 08:34:56;;;;;;;;;;;;;;;;;;5092138;28;19912;-66
2021/05/09 08:37:22;;;;;;;;;;;;;;;;;;5088949;28;19991;-66
2021/05/09 08:39:47;;;;;;;;;;;;;;;;;;5089730;28;20061;-66
2021/05/09 08:42:13;;;;;;;;;;;;;;;;;;5092467;28;20001;-67
2021/05/09 08:44:38;;;;;;;;;;;;;;;;;;5108444;28;19920;-67
2021/05/09 08:47:04;;;;;;;;;;;;;;;;;;5090620;28;20041;-67
2021/05/09 08:49:29;;;;;;;;;;;;;;;;;;5091629;28;19927;-67
2021/05/09 08:51:54;;;;;;;;;;;;;;;;;;5093077;28;19916;-66
2021/05/09 08:54:20;;;;;;;;;;;;;;;;;;5091455;28;19918;-66
2021/05/09 08:56:45;;;;;;;;;;;;;;;;;;5092017;28;19923;-66
2021/05/09 08:59:10;;;;;;;;;;;;;;;;;;5092643;28;19912;-66
2021/05/09 09:01:39;;;;;;;;;;;;;;;;;;5092419;28;20018;-65
2021/05/09 09:04:05;;;;;;;;;;;;;;;;;;5091200;28;19966;-65
2021/05/09 09:06:30;;;;;;;;;;;;;;;;;;5099795;28;19959;-65
2021/05/09 09:08:55;;;;;;;;;;;;;;;;;;5096672;28;20349;-66
2021/05/09 09:11:21;;;;;;;;;;;;;;;;;;5101665;28;19927;-66
2021/05/09 09:13:46;;;;;;;;;;;;;;;;;;5099662;28;20381;-67
2021/05/09 09:16:12;;;;;;;;;;;;;;;;;;5102017;28;19912;-67
2021/05/09 09:18:37;;;;;;;;;;;;;;;;;;5100473;28;20337;-66
2021/05/09 09:21:03;;;;;;;;;;;;;;;;;;5099215;28;19965;-67
2021/05/09 09:23:28;;;;;;;;;;;;;;;;;;5099824;28;19931;-66
2021/05/09 09:25:53;;;;;;;;;;;;;;;;;;5099951;28;19935;-67
2021/05/09 09:28:20;;;;;;;;;;;;;;;;;;5098473;28;19919;-67
2021/05/09 09:30:45;;;;;;;;;;;;;;;;;;5096412;28;19916;-67
2021/05/09 09:33:11;;;;;;;;;;;;;;;;;;5099532;28;19912;-66
2021/05/09 09:35:36;;;;;;;;;;;;;;;;;;5096127;28;20392;-66
2021/05/09 09:38:02;;;;;;;;;;;;;;;;;;5080942;28;19920;-66
2021/05/09 09:40:27;;;;;;;;;;;;;;;;;;5103901;28;19923;-66
2021/05/09 09:42:53;;;;;;;;;;;;;;;;;;5106231;28;19998;-67
2021/05/09 09:45:19;;;;;;;;;;;;;;;;;;5086536;28;20343;-67
2021/05/09 09:47:44;;;;;;;;;;;;;;;;;;5098179;28;19971;-67
2021/05/09 09:50:09;;;;;;;;;;;;;;;;;;5084204;28;19912;-64
2021/05/09 09:52:35;;;;;;;;;;;;;;;;;;5103774;28;19972;-64
2021/05/09 09:55:00;;;;;;;;;;;;;;;;;;5100395;28;20019;-64
2021/05/09 09:57:26;;;;;;;;;;;;;;;;;;5088230;28;20429;-66
2021/05/09 09:59:51;;;;;;;;;;;;;;;;;;5102398;28;19916;-66
2021/05/09 10:02:16;;;;;;;;;;;;;;;;;;5102099;28;20325;-67
2021/05/09 10:04:42;;;;;;;;;;;;;;;;;;5103138;28;19927;-66
2021/05/09 10:07:07;;;;;;;;;;;;;;;;;;5094049;28;20243;-67
2021/05/09 10:09:32;;;;;;;;;;;;;;;;;;5094793;28;19912;-65
2021/05/09 10:11:58;;;;;;;;;;;;;;;;;;5094943;28;19919;-67
2021/05/09 10:14:23;;;;;;;;;;;;;;;;;;5095947;28;20024;-66
2021/05/09 10:16:49;;;;;;;;;;;;;;;;;;5093283;28;20492;-68
2021/05/09 10:19:15;;;;;;;;;;;;;;;;;;5093786;28;19927;-69
2021/05/09 10:21:42;;;;;;;;;;;;;;;;;;5114363;28;19913;-69
2021/05/09 10:24:08;;;;;;;;;;;;;;;;;;5099328;28;19913;-67
2021/05/09 10:26:33;;;;;;;;;;;;;;;;;;5094369;28;19927;-67
2021/05/09 10:28:58;;;;;;;;;;;;;;;;;;5092891;28;19912;-67
2021/05/09 10:31:24;;;;;;;;;;;;;;;;;;5094422;28;20376;-67
2021/05/09 10:33:49;;;;;;;;;;;;;;;;;;5093082;28;20006;-67
2021/05/09 10:36:14;;;;;;;;;;;;;;;;;;5095842;28;20345;-66
2021/05/09 10:38:40;;;;;;;;;;;;;;;;;;5092279;28;19954;-66
2021/05/09 10:41:05;;;;;;;;;;;;;;;;;;5111052;28;19916;-67
2021/05/09 10:43:31;;;;;;;;;;;;;;;;;;5094756;28;19928;-67
2021/05/09 10:45:56;;;;;;;;;;;;;;;;;;5094005;28;19923;-66
2021/05/09 10:48:22;;;;;;;;;;;;;;;;;;5093246;28;19941;-67
2021/05/09 10:50:47;;;;;;;;;;;;;;;;;;5092802;28;19916;-67
2021/05/09 10:53:12;;;;;;;;;;;;;;;;;;5095088;28;19923;-67
2021/05/09 10:55:38;;;;;;;;;;;;;;;;;;5094363;28;19920;-67
2021/05/09 10:58:04;;;;;;;;;;;;;;;;;;5093169;28;19912;-66
2021/05/09 11:00:29;;;;;;;;;;;;;;;;;;5094416;28;19912;-66
2021/05/09 11:02:54;;;;;;;;;;;;;;;;;;5096151;28;20269;-66
2021/05/09 11:05:23;;;;;;;;;;;;;;;;;;5094571;28;19980;-66
2021/05/09 11:07:48;;;;;;;;;;;;;;;;;;5094496;28;19924;-67
2021/05/09 11:10:14;;;;;;;;;;;;;;;;;;5094801;28;19962;-67
2021/05/09 11:12:39;;;;;;;;;;;;;;;;;;5095383;28;20269;-67
2021/05/09 11:15:04;;;;;;;;;;;;;;;;;;5095966;28;20002;-65
2021/05/09 11:17:30;;;;;;;;;;;;;;;;;;5094571;28;20253;-66
2021/05/09 11:19:55;;;;;;;;;;;;;;;;;;5094765;28;19919;-65
2021/05/09 11:22:20;;;;;;;;;;;;;;;;;;5110224;28;20014;-65
2021/05/09 11:24:47;;;;;;;;;;;;;;;;;;5095737;28;19919;-65
2021/05/09 11:27:12;;;;;;;;;;;;;;;;;;5094118;28;19916;-65
2021/05/09 11:29:39;;;;;;;;;;;;;;;;;;5093279;28;20365;-66
2021/05/09 11:32:05;;;;;;;;;;;;;;;;;;5091368;28;19961;-66
2021/05/09 11:34:30;;;;;;;;;;;;;;;;;;5094145;28;19920;-66
2021/05/09 11:36:57;;;;;;;;;;;;;;;;;;5106318;28;20039;-66
2021/05/09 11:39:22;;;;;;;;;;;;;;;;;;5089175;28;19913;-66
2021/05/09 11:41:48;;;;;;;;;;;;;;;;;;5091777;28;19913;-66
2021/05/09 11:44:13;;;;;;;;;;;;;;;;;;5091821;28;20256;-66
2021/05/09 11:46:39;;;;;;;;;;;;;;;;;;5094294;28;19989;-67
2021/05/09 11:49:04;;;;;;;;;;;;;;;;;;5092959;28;19920;-67
2021/05/09 11:51:29;;;;;;;;;;;;;;;;;;5092633;28;20354;-67
2021/05/09 11:53:55;;;;;;;;;;;;;;;;;;5090352;28;19994;-67
2021/05/09 11:56:20;;;;;;;;;;;;;;;;;;5092889;28;19916;-67
2021/05/09 11:58:45;;;;;;;;;;;;;;;;;;5091697;28;19923;-66
2021/05/09 12:01:11;;;;;;;;;;;;;;;;;;5109216;28;20299;-66
2021/05/09 12:03:36;;;;;;;;;;;;;;;;;;5092605;28;19954;-66
2021/05/09 12:06:02;;;;;;;;;;;;;;;;;;5091117;28;19916;-67
2021/05/09 12:08:30;;;;;;;;;;;;;;;;;;5091193;28;20384;-67
2021/05/09 12:10:55;;;;;;;;;;;;;;;;;;5089837;28;19921;-67
2021/05/09 12:13:21;;;;;;;;;;;;;;;;;;5092758;28;19923;-67
2021/05/09 12:15:48;;;;;;;;;;;;;;;;;;5092870;28;20989;-68
2021/05/09 12:18:13;;;;;;;;;;;;;;;;;;5111131;28;20258;-68
2021/05/09 12:20:40;;;;;;;;;;;;;;;;;;5097856;28;19912;-68
2021/05/09 12:23:06;;;;;;;;;;;;;;;;;;5099966;28;19951;-69
2021/05/09 12:25:31;;;;;;;;;;;;;;;;;;5094820;28;19927;-67
2021/05/09 12:27:57;;;;;;;;;;;;;;;;;;5089743;28;19920;-67
2021/05/09 12:30:22;;;;;;;;;;;;;;;;;;5091552;28;19912;-67
2021/05/09 12:32:47;;;;;;;;;;;;;;;;;;5090728;28;19912;-67
2021/05/09 12:35:14;;;;;;;;;;;;;;;;;;5092528;28;19913;-67
2021/05/09 12:37:40;;;;;;;;;;;;;;;;;;5090910;28;19912;-67
2021/05/09 12:40:05;;;;;;;;;;;;;;;;;;5092047;28;19920;-67
2021/05/09 12:42:30;;;;;;;;;;;;;;;;;;5092705;28;20314;-67
2021/05/09 12:44:56;;;;;;;;;;;;;;;;;;5090918;28;20076;-67
2021/05/09 12:47:21;;;;;;;;;;;;;;;;;;5091147;28;20372;-66
2021/05/09 12:49:47;;;;;;;;;;;;;;;;;;5092016;28;20016;-66
2021/05/09 12:52:12;;;;;;;;;;;;;;;;;;5092661;28;19923;-66
2021/05/09 12:54:44;;;;;;;;;;;;;;;;;;5088500;28;19977;-67
2021/05/09 12:57:10;;;;;;;;;;;;;;;;;;5091702;28;20302;-66
2021/05/09 12:59:35;;;;;;;;;;;;;;;;;;5090528;28;19919;-66
2021/05/09 13:02:00;;;;;;;;;;;;;;;;;;5089097;28;19923;-66
2021/05/09 13:04:26;;;;;;;;;;;;;;;;;;5093741;28;19912;-66
2021/05/09 13:06:51;;;;;;;;;;;;;;;;;;5098053;28;19935;-66
2021/05/09 13:09:16;;;;;;;;;;;;;;;;;;5097579;28;19927;-66
2021/05/09 13:11:42;;;;;;;;;;;;;;;;;;5100259;28;20362;-65
2021/05/09 13:14:07;;;;;;;;;;;;;;;;;;5099120;28;19920;-66
2021/05/09 13:16:33;;;;;;;;;;;;;;;;;;5100340;28;19920;-66
2021/05/09 13:18:58;;;;;;;;;;;;;;;;;;5097440;28;20007;-67
2021/05/09 13:21:23;;;;;;;;;;;;;;;;;;5099567;28;19944;-66
2021/05/09 13:23:49;;;;;;;;;;;;;;;;;;5093992;28;19912;-66
2021/05/09 13:26:14;;;;;;;;;;;;;;;;;;5081050;28;19962;-66
2021/05/09 13:28:39;;;;;;;;;;;;;;;;;;5100028;28;20253;-66
2021/05/09 13:31:05;;;;;;;;;;;;;;;;;;5099332;28;19912;-66
2021/05/09 13:33:30;;;;;;;;;;;;;;;;;;5098683;28;19998;-66
2021/05/09 13:35:55;;;;;;;;;;;;;;;;;;5099156;28;19919;-65
2021/05/09 13:38:21;;;;;;;;;;;;;;;;;;5099130;28;19965;-66
2021/05/09 13:40:46;;;;;;;;;;;;;;;;;;5097585;28;19990;-65
2021/05/09 13:43:12;;;;;;;;;;;;;;;;;;5096864;28;19915;-66
2021/05/09 13:45:37;;;;;;;;;;;;;;;;;;5097566;28;19931;-67
2021/05/09 13:48:02;;;;;;;;;;;;;;;;;;5098108;28;19924;-67
2021/05/09 13:50:28;;;;;;;;;;;;;;;;;;5081864;28;20239;-67
2021/05/09 13:52:53;;;;;;;;;;;;;;;;;;5099363;28;19916;-66
2021/05/09 13:55:19;;;;;;;;;;;;;;;;;;5098764;28;19912;-66
2021/05/09 13:57:44;;;;;;;;;;;;;;;;;;5100893;28;19912;-67
2021/05/09 14:00:10;;;;;;;;;;;;;;;;;;5100873;28;20015;-66
2021/05/09 14:02:35;;;;;;;;;;;;;;;;;;5096609;28;19943;-66
2021/05/09 14:05:00;;;;;;;;;;;;;;;;;;5098799;28;19918;-66
2021/05/09 14:07:26;;;;;;;;;;;;;;;;;;5089173;28;20253;-66
2021/05/09 14:09:51;;;;;;;;;;;;;;;;;;5091964;28;19923;-67
2021/05/09 14:12:18;;;;;;;;;;;;;;;;;;5092408;28;19916;-67
2021/05/09 14:14:43;;;;;;;;;;;;;;;;;;5088955;28;19912;-67
2021/05/09 14:17:09;;;;;;;;;;;;;;;;;;5089657;28;19916;-67
2021/05/09 14:19:34;;;;;;;;;;;;;;;;;;5091596;28;19912;-68
2021/05/09 14:22:00;;;;;;;;;;;;;;;;;;5093370;28;19930;-69
2021/05/09 14:24:25;;;;;;;;;;;;;;;;;;5094301;28;19912;-71
2021/05/09 14:26:50;;;;;;;;;;;;;;;;;;5099571;28;19924;-67
2021/05/09 14:29:16;;;;;;;;;;;;;;;;;;5090731;28;20226;-67
2021/05/09 14:31:41;;;;;;;;;;;;;;;;;;5092504;28;19943;-67
2021/05/09 14:34:06;;;;;;;;;;;;;;;;;;5093138;28;20011;-67
2021/05/09 14:36:32;;;;;;;;;;;;;;;;;;5093533;28;20395;-67
2021/05/09 14:38:58;;;;;;;;;;;;;;;;;;5092629;28;19920;-67
2021/05/09 14:41:23;;;;;;;;;;;;;;;;;;5109018;28;19955;-67
2021/05/09 14:43:48;;;;;;;;;;;;;;;;;;5093268;28;19918;-70
2021/05/09 14:46:14;;;;;;;;;;;;;;;;;;5094735;28;19989;-66
2021/05/09 14:48:39;;;;;;;;;;;;;;;;;;5092562;28;19963;-66
2021/05/09 14:51:05;;;;;;;;;;;;;;;;;;5093527;28;20348;-66
2021/05/09 14:53:30;;;;;;;;;;;;;;;;;;5089283;28;20370;-66
2021/05/09 14:55:56;;;;;;;;;;;;;;;;;;5092722;28;20246;-66
2021/05/09 14:58:21;;;;;;;;;;;;;;;;;;5094912;28;19912;-66
2021/05/09 15:00:48;;;;;;;;;;;;;;;;;;5094640;28;20349;-66
2021/05/09 15:03:13;;;;;;;;;;;;;;;;;;5091580;28;19915;-66
2021/05/09 15:05:39;;;;;;;;;;;;;;;;;;5093741;28;20010;-67
2021/05/09 15:08:04;;;;;;;;;;;;;;;;;;5090132;28;21194;-67
2021/05/09 15:10:29;;;;;;;;;;;;;;;;;;5091471;28;19931;-66
2021/05/09 15:12:55;;;;;;;;;;;;;;;;;;5092664;28;20053;-67
2021/05/09 15:15:20;;;;;;;;;;;;;;;;;;5111157;28;19916;-68
2021/05/09 15:17:45;;;;;;;;;;;;;;;;;;5094947;28;19916;-68
2021/05/09 15:20:11;;;;;;;;;;;;;;;;;;5094420;28;19926;-68
2021/05/09 15:22:36;;;;;;;;;;;;;;;;;;5095378;28;19916;-68
2021/05/09 15:25:02;;;;;;;;;;;;;;;;;;5092979;28;19948;-68
2021/05/09 15:27:27;;;;;;;;;;;;;;;;;;5095075;28;19946;-68
2021/05/09 15:29:53;;;;;;;;;;;;;;;;;;5093015;28;20329;-68
2021/05/09 15:32:18;;;;;;;;;;;;;;;;;;5093897;28;19912;-68
2021/05/09 15:34:43;;;;;;;;;;;;;;;;;;5092811;28;19970;-67
2021/05/09 15:37:09;;;;;;;;;;;;;;;;;;5108747;28;19916;-67
2021/05/09 15:39:34;;;;;;;;;;;;;;;;;;5108034;28;20018;-67
2021/05/09 15:42:00;;;;;;;;;;;;;;;;;;5094427;28;19912;-68
2021/05/09 15:44:26;;;;;;;;;;;;;;;;;;5093411;28;19923;-67
2021/05/09 15:46:51;;;;;;;;;;;;;;;;;;5094547;28;20006;-68
2021/05/09 15:49:21;;;;;;;;;;;;;;;;;;5093701;28;20353;-67
2021/05/09 15:51:47;;;;;;;;;;;;;;;;;;5095576;28;19989;-67
2021/05/09 15:54:12;;;;;;;;;;;;;;;;;;5110727;28;19912;-67
2021/05/09 15:56:37;;;;;;;;;;;;;;;;;;5093756;28;19974;-67
2021/05/09 15:59:03;;;;;;;;;;;;;;;;;;5093033;28;19912;-67
2021/05/09 16:01:28;;;;;;;;;;;;;;;;;;5092342;28;19912;-66
2021/05/09 16:03:53;;;;;;;;;;;;;;;;;;5095116;28;19912;-67
2021/05/09 16:06:20;;;;;;;;;;;;;;;;;;5068225;28;20401;-67
2021/05/09 16:08:47;;;;;;;;;;;;;;;;;;5060900;28;19912;-67
2021/05/09 16:11:12;;;;;;;;;;;;;;;;;;5063004;28;19927;-68
2021/05/09 16:13:38;;;;;;;;;;;;;;;;;;5065110;28;19913;-67
2021/05/09 16:16:03;;;;;;;;;;;;;;;;;;5064423;28;19917;-68
2021/05/09 16:18:29;;;;;;;;;;;;;;;;;;5063549;28;19970;-67
2021/05/09 16:20:54;;;;;;;;;;;;;;;;;;5067049;28;20020;-67
2021/05/09 16:23:19;;;;;;;;;;;;;;;;;;5064352;28;19913;-71
2021/05/09 16:25:45;;;;;;;;;;;;;;;;;;5069963;28;19912;-71
2021/05/09 16:28:12;;;;;;;;;;;;;;;;;;5068682;28;19916;-69
2021/05/09 16:30:37;;;;;;;;;;;;;;;;;;5065323;28;19947;-67
2021/05/09 16:33:03;;;;;;;;;;;;;;;;;;5065769;28;19948;-67